Tiempo atmosférico en la estación meteorológica de San Andrés y Sauces, Santa Cruz de Tenerife (362 m.)



Fecha
DESCASC
Temp. máxima en grados centígrados (hora)
DESCASC
Temp. mínima en grados centígrados (hora)
DESCASC
Temp. media en grados centígrados
DESCASC
Racha de viento máxima en m/sg (hora)
DESCASC
Velocidad máxima media en intervalos de 10 minutos(hora)
DESCASC
Precipitaciones diarias en mm
DESCASC
Precipitaciones de 00:00 a 06:00 en mm
DESCASC
Precipitaciones de 06:00 a 12:00 en mm
DESCASC
Precipitaciones de 12:00 a 18:00 en mm
DESCASC
Precipitaciones de 18:00 a 24:00 en mm
DESCASC
09-12-2018 18.1 (12:50) 15.2 (08:10) 16.7 6.11 (00:10) 3.89 (01:20) 0 0 0 0 0
07-12-2018 22.4 (11:40) 16.2 (23:20) 19.3 9.17 (04:40) 5.28 (04:30) 0 0 0 0 0
06-12-2018 21.5 (11:30) 15.8 (00:00) 18.7 6.67 (23:50) 4.17 (23:59) 0 0 0 0 0
05-12-2018 22.9 (14:30) 15.7 (00:00) 19.3 8.61 (03:00) 5 (03:10) 0 0 0 0 0
04-12-2018 24.4 (14:40) 13.9 (00:50) 19.1 8.33 (05:10) 4.17 (03:20) 0 0 0 0 0
03-12-2018 20.5 (12:30) 14.7 (00:00) 17.6 6.39 (05:10) 4.17 (06:10) 0 0 0 0 0
02-12-2018 19.4 (14:20) 15.5 (00:00) 17.4 7.22 (12:20) 4.17 (01:20) 0.6 0.6 0 0 0
01-12-2018 20.7 (12:50) 14.8 (00:00) 17.8 8.06 (13:20) 4.44 (01:10) 1.4 0 0 0 1.4
30-11-2018 20.7 (12:20) 13.9 (00:00) 17.3 5.56 (11:50) 3.89 (21:20) 0 0 0 0 0
29-11-2018 20.3 (13:10) 14.1 (00:00) 17.2 5 (05:10) 3.33 (05:00) 0 0 0 0 0
28-11-2018 20.1 (15:00) 13.7 (00:00) 16.9 6.11 (11:30) 3.61 (03:30) 0 0 0 0 0
27-11-2018 20.7 (11:00) 15.4 (00:00) 18.1 7.22 (21:30) 3.61 (07:20) 1.4 0 0 0 1.4
25-11-2018 22.9 (11:10) 16.4 (00:00) 19.6 7.78 (08:40) 4.72 (14:00) 0 0 0 0 0
24-11-2018 20.5 (12:50) 12.6 (00:00) 16.6 7.78 (19:10) 5.28 (00:10) 0 0 0 0 0
23-11-2018 17.5 (13:20) 11.9 (00:00) 14.7 12.22 (04:20) 6.11 (03:50) 3 3 0 0 0
22-11-2018 17.3 (13:00) 10.7 (00:00) 14 12.5 (22:00) 7.22 (22:00) 110.6 0 19.8 72.6 18.2
21-11-2018 19.9 (10:30) 13.7 (00:00) 16.8 13.06 (14:00) 7.22 (14:00) 11.6 0 0 11.6 0
20-11-2018 21.1 (10:50) 14.4 (00:00) 17.8 9.72 (03:30) 5.28 (00:40) 0 0 0 0 0
19-11-2018 18.4 (13:30) 13.4 (00:00) 15.9 11.39 (14:30) 6.67 (14:30) 6.6 2.2 4.4 0 0
18-11-2018 17.9 (10:40) 14.2 (00:00) 16 9.17 (13:10) 4.44 (11:10) 1.8 0 1.2 0.2 0.4
17-11-2018 19.9 (12:50) 15.2 (00:00) 17.5 16.39 (13:30) 7.78 (10:20) 7.2 0 6.6 0.4 0.2
16-11-2018 19.5 (15:30) 14.2 (00:00) 16.8 9.72 (14:20) 5.83 (13:20) 0 0 0 0 0
15-11-2018 18.5 (13:50) 14 (00:00) 16.3 13.61 (09:10) 7.78 (15:20) 10 0 10 0 0
14-11-2018 20 (12:00) 14.4 (00:00) 17.2 7.78 (15:50) 5.28 (15:30) 0 0 0 0 0

Gráficas

Temp. máximas Temp. mínimas Temp. medias Precipitaciones Rachas de viento máximas Velocidades máximas media en intervalos de 10 minutos

Datos horarios

Fecha y hora oficial Temperatura (ºC) Velocidad del viento (km/h) Dirección del viento Racha (km/h) Dirección de racha Precipitación (mm) Presión (hPa) Tendencia (hPa) Humedad (%)
2018-12-13 23:00:00 16 6 Sudoeste 11 Sudoeste 0 -- -- 86
2018-12-13 22:00:00 16.3 5 Sur 17 Sudoeste 0 -- -- 80
2018-12-13 21:00:00 16.3 8 Sudoeste 31 Sudoeste 0 -- -- 77
2018-12-13 20:00:00 16.8 15 Sudoeste 25 Sudoeste 0 -- -- 68
2018-12-13 19:00:00 15.3 11 Sudoeste 16 Sudoeste 0 -- -- 82
2018-12-13 18:00:00 16.4 0 Calma 9 Norte 0 -- -- 83
2018-12-13 17:00:00 16.8 7 Norte 15 Norte 0 -- -- 83
2018-12-13 16:00:00 16.9 10 Norte 16 Norte 0 -- -- 82
2018-12-13 15:00:00 17.7 9 Nordeste 12 Nordeste 0 -- -- 79
2018-12-13 14:00:00 17.8 6 Nordeste 15 Este 0 -- -- 79
2018-12-13 13:00:00 18.2 7 Nordeste 14 Este 0 -- -- 78
2018-12-13 12:00:00 18.2 9 Nordeste 13 Nordeste 0 -- -- 79
2018-12-13 11:00:00 17.5 8 Nordeste 13 Nordeste 0 -- -- 83
2018-12-13 10:00:00 18.5 5 Nordeste 14 Norte 0 -- -- 81
2018-12-13 09:00:00 16 8 Norte 13 Noroeste 0 -- -- 89
2018-12-13 08:00:00 15.3 6 Oeste 13 Oeste 0 -- -- 85
2018-12-13 07:00:00 14.6 6 Oeste 10 Sudoeste 0 -- -- 86
2018-12-13 06:00:00 14.7 7 Oeste 12 Oeste 0 -- -- 85
2018-12-13 05:00:00 15.6 5 Sudoeste 14 Oeste 0 -- -- 81
2018-12-13 04:00:00 16.2 10 Oeste 19 Sudoeste 0 -- -- 77
2018-12-13 03:00:00 15.4 8 Oeste 16 Sudoeste 0 -- -- 81
2018-12-13 02:00:00 14.6 12 Sudoeste 14 Sudoeste 0 -- -- 84
2018-12-13 01:00:00 15 10 Oeste 18 Oeste 0 -- -- 77
2018-12-13 00:00:00 15.5 10 Oeste 15 Oeste 0 -- -- 77
2018-12-12 23:00:00 16 12 Sudoeste 15 Sudoeste 0 -- -- 74
2018-12-12 22:00:00 15.9 10 Oeste 15 Sudoeste 0 -- -- 77
2018-12-12 21:00:00 15.8 3 Noroeste 17 Sudoeste 0 -- -- 80
2018-12-12 20:00:00 15.3 12 Sudoeste 18 Sudoeste 0 -- -- 80
2018-12-12 19:00:00 15.3 8 Sudoeste 12 Sudoeste 0 -- -- 83
2018-12-12 18:00:00 15.5 6 Sudoeste 10 Sudoeste 0 -- -- 81
2018-12-12 17:00:00 17.1 3 Sur 13 Nordeste 0 -- -- 75
2018-12-12 16:00:00 17.4 8 Nordeste 17 Este 0 -- -- 74
2018-12-12 15:00:00 17.9 13 Este 17 Este 0 -- -- 74
2018-12-12 14:00:00 17.6 6 Nordeste 19 Nordeste 0 -- -- 73
2018-12-12 13:00:00 18.3 10 Este 23 Este 0 -- -- 75
2018-12-12 12:00:00 18.2 13 Este 19 Este 0 -- -- 76
2018-12-12 11:00:00 18.8 8 Este 18 Este 0 -- -- 73
2018-12-12 10:00:00 16.6 4 Sur 12 Sudoeste 0 -- -- 79
2018-12-12 09:00:00 15.5 12 Sudoeste 19 Sudoeste 0 -- -- 79
2018-12-12 08:00:00 14.9 13 Sudoeste 15 Sudoeste 0 -- -- 81
2018-12-12 07:00:00 15.7 5 Sur 17 Sudoeste 0 -- -- 80
2018-12-12 06:00:00 15.9 13 Sudoeste 21 Sudoeste 0 -- -- 76
2018-12-12 05:00:00 15.8 9 Sudoeste 16 Sudoeste 0 -- -- 79
2018-12-12 04:00:00 15.4 10 Sudoeste 16 Sudeste 0 -- -- 82
2018-12-12 03:00:00 15.6 8 Sudoeste 17 Sudoeste 0 -- -- 81
2018-12-12 02:00:00 15.8 14 Sudoeste 19 Sudoeste 0 -- -- 80
2018-12-12 01:00:00 16.6 9 Sudeste 27 Oeste 0 -- -- 79
2018-12-12 00:00:00 16.5 16 Sudoeste 23 Sudoeste 0 -- -- 70
2018-12-11 23:00:00 16.7 9 Sudoeste 31 Sudoeste 0 -- -- 74
2018-12-11 22:00:00 16.2 15 Sudoeste 22 Sudoeste 0 -- -- 75
2018-12-11 21:00:00 16.4 17 Sudoeste 29 Sudoeste 0 -- -- 74
2018-12-11 20:00:00 16.4 9 Sudoeste 16 Sudoeste 0 -- -- 82
2018-12-11 19:00:00 16.7 7 Sudeste 18 Este 0 -- -- 84
2018-12-11 18:00:00 17 6 Sudeste 15 Sudeste 0 -- -- 85
2018-12-11 17:00:00 17.3 9 Este 14 Este 0 -- -- 83
2018-12-11 16:00:00 17.4 9 Este 14 Nordeste 0 -- -- 84
2018-12-11 15:00:00 18.5 8 Este 13 Este 0 -- -- 77
2018-12-11 14:00:00 18.2 9 Nordeste 16 Nordeste 0 -- -- 78
2018-12-11 13:00:00 18.6 9 Este 16 Este 0 -- -- 78
2018-12-11 12:00:00 18.4 11 Este 20 Este 0 -- -- 77
2018-12-11 11:00:00 18.3 6 Este 15 Este 0 -- -- 74
2018-12-11 10:00:00 17.2 6 Este 11 Este 0 -- -- 81
2018-12-11 09:00:00 16.3 5 Sudoeste 14 Sudoeste 0 -- -- 82
2018-12-11 08:00:00 15.7 12 Sudoeste 14 Sudoeste 0 -- -- 84
2018-12-11 07:00:00 15.7 9 Sudoeste 15 Sudoeste 0 -- -- 84
2018-12-11 06:00:00 15.3 8 Sudoeste 14 Sudoeste 0 -- -- 88
2018-12-11 05:00:00 14.8 11 Sudoeste 15 Sudoeste 0 -- -- 87
2018-12-11 04:00:00 15.1 11 Sudoeste 15 Sudoeste 0 -- -- 90
2018-12-11 03:00:00 14.4 4 Sudoeste 10 Norte 0 -- -- 93
2018-12-11 02:00:00 15.4 6 Noroeste 15 Noroeste 0 -- -- 87
2018-12-11 01:00:00 15.4 6 Oeste 11 Oeste 0 -- -- 84
2018-12-11 00:00:00 16.2 6 Noroeste 11 Norte 0 -- -- 90
2018-12-10 23:00:00 17.7 9 Sudoeste 17 Oeste 0 -- -- 36
2018-12-10 22:00:00 18 11 Oeste 15 Sudoeste 0 -- -- 38
2018-12-10 21:00:00 18.2 12 Oeste 17 Oeste 0 -- -- 37
2018-12-10 20:00:00 18.6 7 Oeste 14 Oeste 0 -- -- 41
2018-12-10 19:00:00 17.7 11 Sudoeste 18 Sudoeste 0 -- -- 42
2018-12-10 18:00:00 18.8 13 Sudoeste 20 Oeste 0 -- -- 41
2018-12-10 17:00:00 19.5 3 Oeste 5 Nordeste 0 -- -- 84
2018-12-10 16:00:00 19.9 3 Nordeste 10 Nordeste 0 -- -- 85
2018-12-10 15:00:00 19.6 6 Nordeste 13 Nordeste 0 -- -- 86
2018-12-10 14:00:00 20 5 Este 9 Nordeste 0 -- -- 86
2018-12-10 13:00:00 19.4 4 Nordeste 8 Nordeste 0 -- -- 88
2018-12-10 12:00:00 20.5 5 Este 11 Este 0 -- -- 82
2018-12-10 11:00:00 20 3 Este 11 Este 0 -- -- 83
2018-12-10 10:00:00 17.5 7 Sur 14 Sur 0 -- -- 91
2018-12-10 09:00:00 16.3 6 Sudoeste 11 Sudoeste 0 -- -- 93
2018-12-10 08:00:00 15.7 4 Sur 9 Sudoeste 0 -- -- 88
2018-12-10 07:00:00 15.6 4 Sudoeste 6 Sudoeste 0 -- -- 86
2018-12-10 06:00:00 15.3 4 Sur 9 Sudoeste 0 -- -- 63
2018-12-10 05:00:00 14.6 4 Sudoeste 9 Sur 0 -- -- 71
2018-12-10 04:00:00 15.8 4 Sudoeste 20 Oeste 0 -- -- 59
2018-12-10 03:00:00 18.2 14 Oeste 18 Oeste 0 -- -- 35
2018-12-10 02:00:00 18.2 12 Sudoeste 21 Sudoeste 0 -- -- 35
2018-12-10 01:00:00 16.2 7 Sudoeste 15 Sudoeste 0 -- -- 44
2018-12-10 00:00:00 16.6 8 Sudoeste 19 Sudoeste 0 -- -- 53
2018-12-09 23:00:00 16.5 8 Sudoeste 13 Sur 0 -- -- 93
2018-12-09 22:00:00 16.6 8 Sur 22 Oeste 0 -- -- 88
2018-12-09 21:00:00 16.6 11 Sur 21 Sudoeste 0 -- -- 73
2018-12-09 20:00:00 16.8 12 Sur 21 Sudeste 0 -- -- 84
2018-12-09 19:00:00 17.2 10 Sudoeste 17 Sudoeste 0 -- -- 58
2018-12-09 18:00:00 16.6 12 Sudoeste 18 Sudoeste 0 -- -- 77
2018-12-09 17:00:00 17.4 6 Sur 13 Sudeste 0 -- -- 89
2018-12-09 16:00:00 17.5 8 Sudeste 14 Sudeste 0 -- -- 88
2018-12-09 15:00:00 17.5 9 Sudeste 17 Sudeste 0 -- -- 87
2018-12-09 14:00:00 17.8 9 Sudeste 17 Este 0 -- -- 85
2018-12-09 13:00:00 17.9 7 Sudeste 21 Este 0 -- -- 85
2018-12-09 12:00:00 17.8 9 Sudeste 17 Sudeste 0 -- -- 86
2018-12-09 11:00:00 17.2 8 Sudeste 14 Sudeste 0 -- -- 87
2018-12-09 10:00:00 16.7 5 Sur 18 Sudoeste 0 -- -- 85
2018-12-09 09:00:00 16 10 Sudoeste 18 Sudoeste 0 -- -- 85
2018-12-09 08:00:00 15.3 13 Sudoeste 17 Sudoeste 0 -- -- 83
2018-12-09 07:00:00 15.5 11 Sudoeste 19 Sudoeste 0 -- -- 83
2018-12-09 06:00:00 15.5 12 Sudoeste 18 Sudoeste 0 -- -- 81
2018-12-09 05:00:00 15.5 13 Sudoeste 19 Sudoeste 0 -- -- 82
2018-12-09 04:00:00 15.9 12 Sudoeste 18 Sudoeste 0 -- -- 82
2018-12-09 03:00:00 16.2 9 Sudoeste 19 Sudoeste 0 -- -- 82
2018-12-09 02:00:00 16.2 11 Sudoeste 22 Sudoeste 0 -- -- 81
2018-12-09 01:00:00 16.3 12 Sudoeste 22 Sudoeste 0 -- -- 81
2018-12-09 00:00:00 16.4 11 Sudoeste 22 Sudoeste 0 -- -- 80
2018-12-08 23:00:00 16.3 10 Sudoeste 20 Sur 0 -- -- 81
2018-12-08 22:00:00 16.3 9 Sur 19 Sudoeste 0 -- -- 82
2018-12-08 21:00:00 16.3 10 Sudoeste 18 Sudoeste 0 -- -- 82
2018-12-08 20:00:00 16.4 10 Sudoeste 22 Sudoeste 0 -- -- 82
2018-12-08 19:00:00 16.5 11 Sudoeste 19 Sudoeste 0 -- -- 82
2018-12-08 18:00:00 16.7 10 Sudeste 20 Sudeste 0 -- -- 81
2018-12-08 17:00:00 17.4 10 Sudeste 21 Sudeste 0 -- -- 80
2018-12-08 16:00:00 17.9 9 Este 21 Este 0 -- -- 78
2018-12-08 15:00:00 18.3 10 Sudeste 21 Sudeste 0 -- -- 78
2018-12-08 14:00:00 18.5 10 Este 24 Nordeste 0 -- -- 77
2018-12-08 13:00:00 18.2 13 Sudeste 25 Sudeste 0 -- -- 77
2018-12-08 12:00:00 18 12 Sudeste 23 Sudeste 0 -- -- 82
2018-12-08 11:00:00 17.9 12 Este 24 Este 0 -- -- 84
2018-12-08 10:00:00 17.9 13 Sur 22 Sudeste 0 -- -- 84
2018-12-08 09:00:00 17.2 11 Sur 18 Sudeste 0 -- -- 83
2018-12-08 08:00:00 16 9 Sur 17 Sudoeste 0 -- -- 90
2018-12-08 07:00:00 15.9 9 Sudoeste 17 Sudoeste 0 -- -- 91
2018-12-08 06:00:00 15.7 10 Sudoeste 18 Sudoeste 0 -- -- 92
2018-12-08 05:00:00 15.6 10 Sur 20 Sur 0 -- -- 90
2018-12-08 04:00:00 15.8 10 Sudoeste 16 Sudoeste 0 -- -- 91
2018-12-08 03:00:00 15.9 8 Sur 19 Sudeste 0 -- -- 89
2018-12-08 02:00:00 16.1 12 Sur 21 Sur 0 -- -- 86
2018-12-08 01:00:00 16.1 11 Sur 22 Sudoeste 0 -- -- 88
2018-12-08 00:00:00 16.3 12 Sudoeste 23 Sudoeste 0 -- -- 88
2018-12-07 23:00:00 16.4 9 Sur 18 Sudeste 0 -- -- 90
2018-12-07 22:00:00 16.5 10 Sur 18 Sudoeste 0 -- -- 91
2018-12-07 21:00:00 16.9 9 Sur 16 Sur 0 -- -- 90
2018-12-07 20:00:00 17.1 7 Sudeste 14 Sudeste 0 -- -- 89
2018-12-07 19:00:00 17.4 8 Sudeste 13 Sudeste 0 -- -- 91
2018-12-07 18:00:00 18.1 6 Sudeste 12 Este 0 -- -- 90
2018-12-07 17:00:00 18.7 7 Sudeste 18 Este 0 -- -- 87
2018-12-07 16:00:00 19.7 13 Este 23 Este 0 -- -- 83
2018-12-07 15:00:00 20.9 11 Este 17 Nordeste 0 -- -- 77
2018-12-07 14:00:00 20.9 8 Sur 19 Este 0 -- -- 74
2018-12-07 13:00:00 21.7 11 Este 19 Este 0 -- -- 71
2018-12-07 12:00:00 22.2 12 Sudeste 20 Sur 0 -- -- 49
2018-12-07 11:00:00 21.6 10 Sur 17 Sudeste 0 -- -- 48
2018-12-07 10:00:00 21.4 9 Sur 21 Sudoeste 0 -- -- 35
2018-12-07 09:00:00 20.9 16 Sudoeste 27 Sudoeste 0 -- -- 31
2018-12-07 08:00:00 20.3 11 Sur 27 Sudoeste 0 -- -- 36
2018-12-07 07:00:00 21.1 13 Sudoeste 31 Sudoeste 0 -- -- 28
2018-12-07 06:00:00 21.1 15 Sudoeste 26 Oeste 0 -- -- 32
2018-12-07 05:00:00 21.5 12 Sudoeste 33 Sudoeste 0 -- -- 30
2018-12-07 04:00:00 21.3 15 Sudoeste 32 Sur 0 -- -- 31
2018-12-07 03:00:00 21.4 10 Sur 31 Sur 0 -- -- 30
2018-12-07 02:00:00 21 12 Sudoeste 30 Sudoeste 0 -- -- 32
2018-12-07 01:00:00 19.7 10 Sur 27 Sudoeste 0 -- -- 35
2018-12-07 00:00:00 19.5 15 Sudoeste 24 Sudeste 0 -- -- 42
2018-12-06 23:00:00 18.9 6 Sudoeste 21 Sudoeste 0 -- -- 42
2018-12-06 22:00:00 18.2 12 Sudoeste 20 Sudoeste 0 -- -- 57
2018-12-06 21:00:00 17.1 7 Sudoeste 16 Sur 0 -- -- 79
2018-12-06 20:00:00 16.9 11 Sudoeste 20 Sudoeste 0 -- -- 56
2018-12-06 19:00:00 16.7 11 Sudoeste 17 Sur 0 -- -- 84
2018-12-06 18:00:00 17.8 8 Sudoeste 15 Sudoeste 0 -- -- 88
2018-12-06 17:00:00 18.9 6 Sudeste 12 Sudeste 0 -- -- 86
2018-12-06 16:00:00 19.4 6 Sur 15 Este 0 -- -- 85
2018-12-06 15:00:00 20.3 8 Este 14 Este 0 -- -- 80
2018-12-06 14:00:00 20.4 8 Este 17 Este 0 -- -- 78
2018-12-06 13:00:00 20.2 6 Sudeste 12 Nordeste 0 -- -- 79
2018-12-06 12:00:00 21 8 Este 17 Este 0 -- -- 76
2018-12-06 11:00:00 20.5 8 Este 17 Este 0 -- -- 75
2018-12-06 10:00:00 19.2 6 Sudeste 13 Sur 0 -- -- 78
2018-12-06 09:00:00 16.9 6 Sur 14 Sudoeste 0 -- -- 79
2018-12-06 08:00:00 16.5 10 Sudoeste 14 Sudoeste 0 -- -- 81
2018-12-06 07:00:00 15.8 5 Sudoeste 14 Sudoeste 0 -- -- 86
2018-12-06 06:00:00 16.5 10 Sudoeste 17 Sudoeste 0 -- -- 81
2018-12-06 05:00:00 17.4 10 Sudoeste 17 Sudoeste 0 -- -- 82
2018-12-06 04:00:00 16.2 9 Sudoeste 13 Sudoeste 0 -- -- 84
2018-12-06 03:00:00 15.9 7 Sudoeste 17 Sudoeste 0 -- -- 84
2018-12-06 02:00:00 16.4 9 Sudoeste 15 Sudoeste 0 -- -- 83
2018-12-06 01:00:00 16.2 12 Sudoeste 17 Sudoeste 0 -- -- 80
2018-12-06 00:00:00 16.5 9 Sudoeste 17 Sudoeste 0 -- -- 80
2018-12-05 23:00:00 16.8 13 Sudoeste 18 Sudoeste 0 -- -- 87
2018-12-05 22:00:00 16.9 9 Sudoeste 17 Sudoeste 0 -- -- 86
2018-12-05 21:00:00 16.4 10 Sudoeste 17 Sudoeste 0 -- -- 82
2018-12-05 20:00:00 17 11 Sudoeste 14 Sudoeste 0 -- -- 73
2018-12-05 19:00:00 17.4 6 Sudoeste 20 Sudoeste 0 -- -- 63
2018-12-05 18:00:00 18.1 6 Sur 20 Sudoeste 0 -- -- 64
2018-12-05 17:00:00 20.7 9 Sur 16 Sudeste 0 -- -- 74
2018-12-05 16:00:00 21.9 9 Sudeste 19 Sudeste 0 -- -- 65
2018-12-05 15:00:00 22.3 8 Sudeste 21 Sudeste 0 -- -- 70
2018-12-05 14:00:00 22.2 10 Sudeste 24 Este 0 -- -- 69
2018-12-05 13:00:00 21.5 10 Sudeste 27 Sudoeste 0 -- -- 73
2018-12-05 12:00:00 20.8 12 Sudeste 19 Sur 0 -- -- 75
2018-12-05 11:00:00 19.6 10 Sudeste 19 Sudeste 0 -- -- 77
2018-12-05 10:00:00 20.4 11 Sudeste 20 Sudeste 0 -- -- 73
2018-12-05 09:00:00 19.4 9 Sudeste 17 Sudoeste 0 -- -- 59
2018-12-05 08:00:00 16.7 12 Sudoeste 15 Sudoeste 0 -- -- 59
2018-12-05 07:00:00 16.4 9 Sudoeste 18 Sudoeste 0 -- -- 70
2018-12-05 06:00:00 16.6 6 Sudoeste 13 Sudoeste 0 -- -- 72
2018-12-05 05:00:00 20.4 6 Sudeste 30 Sudoeste 0 -- -- 41
2018-12-05 04:00:00 21.2 15 Sudoeste 30 Sudoeste 0 -- -- 26
2018-12-05 03:00:00 21.4 18 Sudoeste 31 Sur 0 -- -- 27
2018-12-05 02:00:00 21.6 18 Sudoeste 31 Sudoeste 0 -- -- 28
2018-12-05 01:00:00 20.3 12 Sur 26 Sudoeste 0 -- -- 33
2018-12-05 00:00:00 16.3 8 Sudoeste 17 Sudoeste 0 -- -- 56
2018-12-04 23:00:00 16.5 10 Sudoeste 15 Sudoeste 0 -- -- 86
2018-12-04 22:00:00 15.9 7 Sudoeste 13 Sudoeste 0 -- -- 67
2018-12-04 21:00:00 16.9 6 Oeste 14 Sudoeste 0 -- -- 52
2018-12-04 20:00:00 17.9 11 Sudoeste 18 Oeste 0 -- -- 47
2018-12-04 19:00:00 18 12 Oeste 18 Sudoeste 0 -- -- 50
2018-12-04 18:00:00 18.9 14 Sudoeste 19 Oeste 0 -- -- 50
2018-12-04 17:00:00 19.9 4 Oeste 8 Norte 0 -- -- 65
2018-12-04 16:00:00 22.1 6 Norte 17 Nordeste 0 -- -- 58
2018-12-04 15:00:00 23.9 5 Sudoeste 23 Sudoeste 0 -- -- 36
2018-12-04 14:00:00 23.5 12 Norte 24 Nordeste 0 -- -- 46
2018-12-04 13:00:00 21.1 5 Nordeste 10 Nordeste 0 -- -- 71
2018-12-04 12:00:00 21.3 7 Nordeste 15 Norte 0 -- -- 71
2018-12-04 11:00:00 20.7 8 Nordeste 13 Nordeste 0 -- -- 79
2018-12-04 10:00:00 19.2 3 Sudeste 12 Sudoeste 0 -- -- 53
2018-12-04 09:00:00 19.1 8 Sudoeste 18 Oeste 0 -- -- 42
2018-12-04 08:00:00 17.5 11 Sudoeste 20 Sudoeste 0 -- -- 30
2018-12-04 07:00:00 18 14 Oeste 22 Oeste 0 -- -- 30
2018-12-04 06:00:00 17.6 10 Sudoeste 30 Sur 0 -- -- 33
2018-12-04 05:00:00 17 6 Sudoeste 17 Sudoeste 0 -- -- 35
2018-12-04 04:00:00 18 9 Sudoeste 22 Sudoeste 0 -- -- 31
2018-12-04 03:00:00 16.9 14 Oeste 21 Sudoeste 0 -- -- 37
2018-12-04 02:00:00 14.6 8 Oeste 15 Sudoeste 0 -- -- 63
2018-12-04 01:00:00 14.3 8 Sudoeste 13 Sur 0 -- -- 81
2018-12-04 00:00:00 14.7 7 Sudoeste 20 Este 0 -- -- 76
2018-12-03 23:00:00 16.3 12 Sudoeste 21 Sudoeste 0 -- -- 90
2018-12-03 22:00:00 15.1 11 Sudoeste 16 Sudoeste 0 -- -- 74
2018-12-03 21:00:00 15.3 12 Sudoeste 16 Sudoeste 0 -- -- 76
2018-12-03 20:00:00 16.3 12 Sudoeste 15 Sudoeste 0 -- -- 74
2018-12-03 19:00:00 15.8 8 Sudoeste 11 Sudoeste 0 -- -- 80
2018-12-03 18:00:00 16.9 7 Sudoeste 9 Sudoeste 0 -- -- 85
2018-12-03 17:00:00 19.1 2 Oeste 8 Nordeste 0 -- -- 76
2018-12-03 16:00:00 19.7 3 Nordeste 9 Norte 0 -- -- 75
2018-12-03 15:00:00 19.5 6 Nordeste 12 Este 0 -- -- 78
2018-12-03 14:00:00 20.2 7 Nordeste 14 Este 0 -- -- 79
2018-12-03 13:00:00 20.2 8 Nordeste 21 Este 0 -- -- 77
2018-12-03 12:00:00 20 13 Nordeste 22 Este 0 -- -- 76
2018-12-03 11:00:00 19.2 12 Este 22 Este 0 -- -- 79
2018-12-03 10:00:00 17.4 6 Sudeste 18 Sur 0 -- -- 82
2018-12-03 09:00:00 15.7 7 Sur 21 Sudoeste 0 -- -- 84
2018-12-03 08:00:00 14.9 14 Sudoeste 22 Sudoeste 0 -- -- 82
2018-12-03 07:00:00 15.3 13 Sudoeste 22 Sudoeste 0 -- -- 82
2018-12-03 06:00:00 15.3 15 Sudoeste 23 Sudoeste 0 -- -- 79
2018-12-03 05:00:00 15.7 13 Sudoeste 22 Sur 0 -- -- 79
2018-12-03 04:00:00 15.5 12 Sudoeste 20 Sudoeste 0 -- -- 77
2018-12-03 03:00:00 15.9 10 Sudoeste 16 Sudoeste 0 -- -- 78
2018-12-03 02:00:00 15.8 11 Sudoeste 15 Sudoeste 0 -- -- 78
2018-12-03 01:00:00 15.6 12 Sudoeste 18 Sudoeste 0 -- -- 78
2018-12-03 00:00:00 15.7 12 Sudoeste 17 Sudoeste 0 -- -- 79
2018-12-02 23:00:00 15.5 10 Sudoeste 15 Sudoeste 0 -- -- 82
2018-12-02 22:00:00 15.9 9 Sudoeste 14 Sudoeste 0 -- -- 81
2018-12-02 21:00:00 15.8 9 Sudoeste 15 Sudoeste -- -- -- 81
2018-12-02 20:00:00 15.9 12 Sudoeste 17 Sudoeste 0 -- -- 82
2018-12-02 19:00:00 16.5 9 Sudoeste 14 Sudoeste 0 -- -- 81
2018-12-02 18:00:00 17.2 3 Sudeste 10 Nordeste 0 -- -- 81
2018-12-02 17:00:00 17.5 4 Sur 12 Este 0 -- -- 78
2018-12-02 16:00:00 18.1 6 Este 17 Sudeste 0 -- -- 75
2018-12-02 15:00:00 18.6 10 Este 24 Este 0 -- -- 74
2018-12-02 14:00:00 19.1 10 Sudeste 26 Sudeste 0 -- -- 70
2018-12-02 13:00:00 17.8 14 Sur 26 Sudeste 0 -- -- 74
2018-12-02 12:00:00 18.4 13 Sudeste 25 Sudeste 0 -- -- 76
2018-12-02 11:00:00 19 15 Este 24 Nordeste 0 -- -- 76
2018-12-02 10:00:00 17.9 5 Sudeste 15 Sudeste 0 -- -- 80
2018-12-02 09:00:00 16.1 6 Sudoeste 14 Este 0 -- -- 87
2018-12-02 08:00:00 16 9 Sudeste 16 Este 0 -- -- 87
2018-12-02 07:00:00 15.8 4 Sur 18 Sudoeste 0 -- -- 90
2018-12-02 06:00:00 15.6 12 Sudoeste 15 Sudoeste 0.2 -- -- 92
2018-12-02 05:00:00 15.6 10 Sudoeste 18 Sudoeste 0 -- -- 93
2018-12-02 04:00:00 15.8 12 Sudoeste 18 Sudoeste 0 -- -- 90
2018-12-02 03:00:00 15.9 11 Sudoeste 18 Sudoeste 0 -- -- 93
2018-12-02 02:00:00 15.7 10 Sudoeste 22 Sudoeste 0.2 -- -- 95
2018-12-02 01:00:00 16.1 7 Sur 19 Sudoeste 0.2 -- -- 95
2018-12-02 00:00:00 16 14 Sudoeste 18 Sudoeste 0.2 -- -- 93
2018-12-01 23:00:00 16.4 5 Sur 13 Sudoeste 0.6 -- -- 94
2018-12-01 22:00:00 16.3 8 Sur 18 Sudoeste 0.6 -- -- 95
2018-12-01 21:00:00 16.3 11 Sudoeste 22 Sudoeste 0 -- -- 88
2018-12-01 20:00:00 16.3 9 Sudoeste 16 Sudoeste 0 -- -- 93
2018-12-01 19:00:00 16.6 7 Sur 15 Sur 0 -- -- 92
2018-12-01 18:00:00 17 8 Sudeste 13 Sur 0 -- -- 91
2018-12-01 17:00:00 18 6 Sudeste 17 Este 0 -- -- 90
2018-12-01 16:00:00 18.5 9 Sudeste 22 Este 0 -- -- 84
2018-12-01 15:00:00 20 13 Este 25 Este 0 -- -- 76
2018-12-01 14:00:00 19.9 13 Este 29 Este 0 -- -- 76
2018-12-01 13:00:00 20.4 14 Este 27 Este 0 -- -- 73
2018-12-01 12:00:00 20.1 15 Este 23 Sudeste 0 -- -- 73
2018-12-01 11:00:00 18.7 11 Sudeste 19 Este 0 -- -- 78
2018-12-01 10:00:00 17.9 10 Sudeste 27 Sudoeste 0 -- -- 80
2018-12-01 09:00:00 16.8 14 Sudoeste 29 Sudoeste 0 -- -- 79
2018-12-01 08:00:00 16.5 14 Sudoeste 26 Sudoeste 0 -- -- 79
2018-12-01 07:00:00 15.9 10 Sudoeste 21 Sudoeste 0 -- -- 80
2018-12-01 06:00:00 15.8 13 Sudoeste 22 Sudoeste 0 -- -- 80
2018-12-01 05:00:00 15.7 14 Sudoeste 24 Sudoeste 0 -- -- 80
2018-12-01 04:00:00 15.1 13 Sudoeste 22 Sudoeste 0 -- -- 84
2018-12-01 03:00:00 15.1 10 Sudoeste 17 Sudoeste 0 -- -- 82
2018-12-01 02:00:00 15.4 13 Sudoeste 22 Sudoeste 0 -- -- 81
2018-12-01 01:00:00 15.3 15 Sudoeste 19 Sudoeste 0 -- -- 85
2018-12-01 00:00:00 15.1 12 Sudoeste 18 Sudoeste 0 -- -- 86
2018-11-30 23:00:00 14.7 12 Sudoeste 16 Sudoeste 0 -- -- 88
2018-11-30 22:00:00 15.1 10 Sudoeste 17 Sudoeste 0 -- -- 87
2018-11-30 21:00:00 14.9 11 Sudoeste 15 Sudoeste 0 -- -- 86
2018-11-30 20:00:00 14.6 10 Sudoeste 15 Sudoeste 0 -- -- 87
2018-11-30 19:00:00 15.7 10 Sudoeste 15 Sudoeste 0 -- -- 85
2018-11-30 18:00:00 16.4 6 Sudoeste 10 Sudoeste 0 -- -- 83
2018-11-30 17:00:00 17.2 4 Sudoeste 14 Este 0 -- -- 78
2018-11-30 16:00:00 17.6 7 Este 15 Este 0 -- -- 82
2018-11-30 15:00:00 18.4 8 Este 17 Este 0 -- -- 81
2018-11-30 14:00:00 18.6 7 Este 15 Este 0 -- -- 79
2018-11-30 13:00:00 19.7 9 Este 20 Este 0 -- -- 76
2018-11-30 12:00:00 20.5 11 Este 20 Este 0 -- -- 74
2018-11-30 11:00:00 19.6 9 Este 15 Este 0 -- -- 76
2018-11-30 10:00:00 17.4 7 Sur 13 Sudoeste 0 -- -- 81
2018-11-30 09:00:00 15.7 7 Sudoeste 11 Sudoeste 0 -- -- 90
2018-11-30 08:00:00 14.2 10 Sudoeste 15 Sur 0 -- -- 91
2018-11-30 07:00:00 14.2 12 Sudoeste 15 Sudoeste 0 -- -- 91
2018-11-30 06:00:00 13.9 9 Sudoeste 13 Sudoeste 0 -- -- 92
2018-11-30 05:00:00 14.1 8 Sudoeste 10 Sudoeste 0 -- -- 93
2018-11-30 04:00:00 14.2 7 Sudoeste 10 Sudoeste 0 -- -- 94
2018-11-30 03:00:00 14.2 6 Sudoeste 11 Sudoeste 0 -- -- 94
2018-11-30 02:00:00 14.4 10 Sudoeste 12 Sudoeste 0 -- -- 92
2018-11-30 01:00:00 14.5 9 Sudoeste 14 Sudoeste 0 -- -- 92
2018-11-30 00:00:00 14.9 6 Oeste 10 Oeste 0 -- -- 90
2018-11-29 23:00:00 14.5 5 Sudoeste 10 Sudoeste 0 -- -- 92
2018-11-29 22:00:00 14.6 4 Sudoeste 8 Oeste 0 -- -- 84
2018-11-29 21:00:00 15.1 5 Noroeste 14 Oeste 0 -- -- 70
2018-11-29 20:00:00 14.8 6 Oeste 10 Sudoeste 0 -- -- 75
2018-11-29 19:00:00 16.2 9 Sudoeste 13 Sudoeste 0 -- -- 87
2018-11-29 18:00:00 17 3 Norte 11 Este 0 -- -- 87
2018-11-29 17:00:00 18.3 5 Este 12 Este 0 -- -- 82
2018-11-29 16:00:00 19.8 6 Sudeste 14 Este 0 -- -- 76
2018-11-29 15:00:00 19.7 8 Este 15 Este 0 -- -- 79
2018-11-29 14:00:00 19.8 7 Este 14 Este 0 -- -- 77
2018-11-29 13:00:00 20.2 8 Este 16 Este 0 -- -- 75
2018-11-29 12:00:00 19.8 6 Este 14 Nordeste 0 -- -- 76
2018-11-29 11:00:00 18.2 5 Nordeste 10 Nordeste 0 -- -- 83
2018-11-29 10:00:00 18.6 4 Nordeste 9 Nordeste 0 -- -- 81
2018-11-29 09:00:00 16.4 6 Sur 13 Sudoeste 0 -- -- 85
2018-11-29 08:00:00 14.4 10 Sudoeste 13 Sudoeste 0 -- -- 89
2018-11-29 07:00:00 14.2 11 Sudoeste 13 Sudoeste 0 -- -- 85
2018-11-29 06:00:00 14.7 10 Sudoeste 18 Oeste 0 -- -- 84
2018-11-29 05:00:00 14.8 12 Sudoeste 17 Sudoeste 0 -- -- 85
2018-11-29 04:00:00 14.5 5 Oeste 12 Sudoeste 0 -- -- 90
2018-11-29 03:00:00 14.6 8 Oeste 12 Oeste 0 -- -- 88
2018-11-29 02:00:00 15.1 4 Sudoeste 13 Sudoeste 0 -- -- 93
2018-11-29 01:00:00 14.9 9 Sudoeste 16 Sur 0 -- -- 88
2018-11-29 00:00:00 15.2 12 Sudoeste 18 Sudoeste 0 -- -- 85
2018-11-28 23:00:00 15.6 8 Sudoeste 19 Sudoeste 0 -- -- 87
2018-11-28 22:00:00 14.9 12 Sudoeste 15 Sudoeste 0 -- -- 88
2018-11-28 21:00:00 15.1 6 Sudoeste 10 Sudoeste 0 -- -- 88
2018-11-28 20:00:00 15.3 8 Sudoeste 11 Sudoeste 0 -- -- 88
2018-11-28 12:00:00 -- -- -- -- -- -- -- -- --
2018-11-28 11:00:00 17.9 10 Sudeste 19 Este 0 -- -- 80
2018-11-28 10:00:00 17.6 10 Sudeste 16 Sudeste 0 -- -- 81
2018-11-28 09:00:00 15.5 10 Sudoeste 17 Sudoeste 0 -- -- 83
2018-11-28 08:00:00 14.2 11 Sudoeste 15 Sudoeste 0 -- -- 88
2018-11-28 07:00:00 13.8 11 Sudoeste 14 Sudoeste 0 -- -- 80
2018-11-28 06:00:00 14 10 Sudoeste 13 Sudoeste 0 -- -- 79
2018-11-28 05:00:00 13.7 9 Sudoeste 15 Sudoeste 0 -- -- 79
2018-11-28 04:00:00 14.1 13 Sudoeste 16 Sudoeste 0 -- -- 84
2018-11-28 03:00:00 14.8 12 Sudoeste 14 Sudoeste 0 -- -- 86
2018-11-28 02:00:00 15.6 10 Sudoeste 15 Sudoeste 0 -- -- 84
2018-11-28 01:00:00 15.7 9 Sudoeste 16 Sudoeste 0 -- -- 88
2018-11-28 00:00:00 16.2 8 Sudoeste 15 Sudoeste 0 -- -- 89
2018-11-27 23:00:00 16.3 7 Sur 19 Sudeste 0.2 -- -- 91
2018-11-27 22:00:00 16.6 10 Sur 26 Oeste 1.2 -- -- 93
2018-11-27 21:00:00 16.7 10 Sudoeste 21 Sudoeste 0 -- -- 87
2018-11-27 20:00:00 16.7 10 Sudoeste 19 Oeste 0 -- -- 84
2018-11-27 19:00:00 17 12 Sudoeste 17 Sudoeste 0 -- -- 85
2018-11-27 18:00:00 17.4 6 Sudeste 15 Este 0 -- -- 89
2018-11-27 17:00:00 18.1 6 Sudeste 10 Este 0 -- -- 88
2018-11-27 16:00:00 18.4 6 Este 16 Este 0 -- -- 87
2018-11-27 15:00:00 18.5 9 Este 21 Nordeste 0 -- -- 90
2018-11-27 14:00:00 18.4 12 Este 18 Este 0 -- -- 91
2018-11-27 13:00:00 18.7 10 Nordeste 15 Este 0 -- -- 89
2018-11-27 12:00:00 19.2 10 Este 15 Este 0 -- -- 88
2018-11-27 11:00:00 20.7 8 Este 13 Este 0 -- -- 83
2018-11-27 10:00:00 19.2 6 Sudeste 12 Sudeste 0 -- -- 85
2018-11-27 09:00:00 17.2 6 Sur 15 Sudoeste 0 -- -- 83
2018-11-27 08:00:00 15.7 12 Sudoeste 15 Sudoeste 0 -- -- 86
2018-11-27 07:00:00 15.6 11 Sudoeste 14 Sudoeste 0 -- -- 89
2018-11-27 06:00:00 15.7 9 Sudoeste 12 Sudoeste 0 -- -- 90
2018-11-27 05:00:00 16 9 Sudoeste 12 Sudoeste 0 -- -- 91
2018-11-27 04:00:00 15.4 9 Sudoeste 11 Sudoeste 0 -- -- 91
2018-11-27 03:00:00 15.5 5 Sudoeste 12 Sudoeste 0 -- -- 90
2018-11-27 02:00:00 15.7 7 Oeste 10 Sudoeste 0 -- -- 90
2018-11-27 01:00:00 16.2 8 Sudoeste 11 Oeste 0 -- -- 89
2018-11-27 00:00:00 16.3 8 Sudoeste 12 Sudoeste 0 -- -- 87
2018-11-26 23:00:00 16.4 6 Sudoeste 12 Sudoeste 0 -- -- 88
2018-11-26 22:00:00 16.6 5 Oeste 9 Oeste 0 -- -- 90
2018-11-26 21:00:00 16.2 5 Oeste 12 Sudoeste 0 -- -- 90
2018-11-26 20:00:00 15.7 8 Sudoeste 13 Sudoeste 0 -- -- 91
2018-11-26 19:00:00 16.3 8 Sudoeste 14 Sudoeste 0 -- -- 92
2018-11-26 18:00:00 17.2 9 Sudoeste 13 Sudoeste 0.2 -- -- 93
2018-11-26 17:00:00 17.9 5 Sudeste 13 Este 0.2 -- -- 93
2018-11-26 16:00:00 17.9 6 Este 14 Norte 0 -- -- 95
2018-11-26 15:00:00 17.9 10 Nordeste 16 Nordeste 0.2 -- -- 94
2018-11-26 14:00:00 18.5 5 Norte 10 Nordeste 0 -- -- 91
2018-11-26 13:00:00 18.6 7 Nordeste 10 Nordeste 0 -- -- 92
2018-11-26 12:00:00 18.1 7 Nordeste 18 Norte 0.2 -- -- 94
2018-11-26 11:00:00 18.7 9 Nordeste 14 Norte 0 -- -- 92
2018-11-26 10:00:00 18.4 5 Sudoeste 10 Sudoeste 0 -- -- 79
2018-11-26 09:00:00 17.5 3 Oeste 13 Oeste 0 -- -- 81
2018-11-26 08:00:00 16.1 11 Oeste 15 Sudoeste 0 -- -- 83
2018-11-26 07:00:00 15.9 12 Sudoeste 17 Sudoeste 0 -- -- 84
2018-11-26 06:00:00 16 13 Oeste 17 Sudoeste 0 -- -- 84
2018-11-26 05:00:00 16.3 12 Sudoeste 16 Sudoeste 0 -- -- 81
2018-11-26 04:00:00 16.7 12 Sudoeste 15 Sudoeste 0 -- -- 81
2018-11-26 03:00:00 17.3 10 Sudoeste 13 Sudoeste 0 -- -- 80
2018-11-26 02:00:00 17.4 10 Sudoeste 13 Sudoeste 0 -- -- 79
2018-11-26 01:00:00 17.2 9 Sudoeste 14 Sudoeste 0 -- -- 82
2018-11-26 00:00:00 17.2 8 Sudoeste 12 Sudoeste 0 -- -- 84
2018-11-25 23:00:00 17.1 10 Sudoeste 16 Sudoeste 0 -- -- 83
2018-11-25 22:00:00 16.5 10 Oeste 13 Oeste 0 -- -- 84
2018-11-25 21:00:00 17 7 Oeste 13 Sudoeste 0 -- -- 84
2018-11-25 20:00:00 16.9 9 Oeste 15 Oeste 0 -- -- 83
2018-11-25 19:00:00 17.1 6 Oeste 12 Sudoeste 0 -- -- 85
2018-11-25 18:00:00 17.3 3 Oeste 10 Noroeste 0 -- -- 91
2018-11-25 17:00:00 18.1 5 Nordeste 21 Norte 0 -- -- 94
2018-11-25 16:00:00 18.9 15 Norte 27 Nordeste 0 -- -- 90
2018-11-25 15:00:00 18.7 15 Norte 26 Norte 0 -- -- 92
2018-11-25 14:00:00 19.4 17 Norte 24 Norte 0 -- -- 89
2018-11-25 13:00:00 19.8 12 Norte 24 Norte 0 -- -- 88
2018-11-25 12:00:00 20.9 5 Sur 18 Este 0 -- -- 80
2018-11-25 11:00:00 22.5 11 Este 17 Este 0 -- -- 77
2018-11-25 10:00:00 20.9 8 Este 14 Este 0 -- -- 76
2018-11-25 09:00:00 20 8 Este 28 Noroeste 0 -- -- 79
2018-11-25 08:00:00 17 8 Oeste 16 Oeste 0 -- -- 82
2018-11-25 07:00:00 17.1 13 Sudoeste 17 Oeste 0 -- -- 80
2018-11-25 06:00:00 17 5 Oeste 14 Sudoeste 0 -- -- 83
2018-11-25 05:00:00 17.5 5 Sudoeste 13 Sudoeste 0 -- -- 82
2018-11-25 04:00:00 17.8 5 Sudoeste 19 Sudoeste 0 -- -- 85
2018-11-25 03:00:00 17.2 6 Sudoeste 10 Sudoeste 0 -- -- 85
2018-11-25 02:00:00 16.7 4 Sudoeste 13 Sudoeste 0 -- -- 87
2018-11-25 01:00:00 16.9 6 Sudoeste 11 Sudoeste 0 -- -- 85
2018-11-25 00:00:00 16.4 6 Sudoeste 10 Sudoeste 0 -- -- 84
2018-11-24 23:00:00 16.1 5 Sudoeste 9 Sudoeste 0 -- -- 84
2018-11-24 22:00:00 16.2 5 Sur 15 Sudoeste 0 -- -- 84
2018-11-24 21:00:00 16.2 6 Sudoeste 11 Sudoeste 0 -- -- 84
2018-11-24 20:00:00 16.8 5 Sur 28 Noroeste 0 -- -- 81
2018-11-24 19:00:00 17 9 Nordeste 20 Norte 0 -- -- 83
2018-11-24 18:00:00 16.7 5 Sudoeste 8 Sudoeste 0 -- -- 81
2018-11-24 17:00:00 18.9 2 Sur 11 Sur 0 -- -- 71
2018-11-24 16:00:00 20.3 6 Sudeste 14 Este 0 -- -- 62
2018-11-24 15:00:00 20 6 Sudeste 13 Este 0 -- -- 63
2018-11-24 14:00:00 20.1 6 Este 15 Nordeste 0 -- -- 61
2018-11-24 13:00:00 20.1 7 Este 16 Nordeste 0 -- -- 60
2018-11-24 12:00:00 20.2 8 Este 18 Este 0 -- -- 62
2018-11-24 11:00:00 19.2 5 Sudeste 12 Sudoeste 0 -- -- 59
2018-11-24 10:00:00 16.8 5 Sur 16 Sudoeste 0 -- -- 64
2018-11-24 09:00:00 14.8 13 Sudoeste 18 Sudoeste 0 -- -- 67
2018-11-24 08:00:00 13.2 15 Sudoeste 19 Sudoeste 0 -- -- 73
2018-11-24 07:00:00 13 15 Sudoeste 19 Sudoeste 0 -- -- 69
2018-11-24 06:00:00 13.1 14 Sudoeste 18 Sudoeste 0 -- -- 66
2018-11-24 05:00:00 12.9 11 Sudoeste 17 Sudoeste 0 -- -- 72
2018-11-24 04:00:00 12.6 11 Sudoeste 17 Sudoeste 0 -- -- 74
2018-11-24 03:00:00 12.7 9 Oeste 16 Sudoeste 0 -- -- 72
2018-11-24 02:00:00 12.7 8 Oeste 17 Sudoeste 0 -- -- 71
2018-11-24 01:00:00 13.2 15 Sudoeste 26 Sudoeste 0 -- -- 64
2018-11-24 00:00:00 13.1 18 Sudoeste 28 Sudoeste 0 -- -- 63
2018-11-23 23:00:00 13.3 15 Sudoeste 19 Sudoeste 0 -- -- 65
2018-11-23 22:00:00 13.5 13 Oeste 24 Oeste 0 -- -- 73
2018-11-23 21:00:00 13.3 13 Oeste 24 Oeste 0 -- -- 73
2018-11-23 20:00:00 13.2 14 Oeste 23 Oeste 0 -- -- 68
2018-11-23 19:00:00 13.6 15 Oeste 27 Oeste 0 -- -- 68
2018-11-23 18:00:00 14.4 16 Oeste 24 Oeste 0 -- -- 74
2018-11-23 17:00:00 16 10 Oeste 24 Norte 0 -- -- 70
2018-11-23 16:00:00 16.1 15 Norte 25 Norte 0 -- -- 69
2018-11-23 15:00:00 16.8 19 Norte 30 Norte 0 -- -- 69
2018-11-23 14:00:00 16.7 15 Norte 31 Norte 0 -- -- 68
2018-11-23 13:00:00 16.4 10 Noroeste 28 Norte 0 -- -- 66
2018-11-23 12:00:00 16.9 12 Norte 30 Norte 0 -- -- 65
2018-11-23 11:00:00 16.4 17 Norte 27 Norte 0 -- -- 66
2018-11-23 10:00:00 15.9 11 Norte 26 Norte 0 -- -- 69
2018-11-23 09:00:00 14.2 13 Oeste 23 Oeste 0 -- -- 75
2018-11-23 08:00:00 13.4 12 Noroeste 26 Oeste 0 -- -- 77
2018-11-23 07:00:00 13.2 14 Oeste 32 Noroeste 0 -- -- 78
2018-11-23 06:00:00 12.9 15 Noroeste 31 Noroeste 0 -- -- 81
2018-11-23 05:00:00 12.5 16 Oeste 44 Norte 2.8 -- -- 87
2018-11-23 04:00:00 12.7 21 Oeste 41 Noroeste 0.2 -- -- 83
2018-11-23 03:00:00 12.9 14 Oeste 30 Noroeste 0 -- -- 79
2018-11-23 02:00:00 12.6 12 Noroeste 30 Noroeste 0 -- -- 84
2018-11-23 01:00:00 12.7 14 Oeste 30 Noroeste 0 -- -- 84
2018-11-23 00:00:00 12.4 13 Oeste 26 Oeste 0.2 -- -- 86
2018-11-22 23:00:00 11.6 14 Sudoeste 41 Oeste 3.6 -- -- 93
2018-11-22 22:00:00 11 26 Norte 45 Norte 3.6 -- -- 96
2018-11-22 21:00:00 12 7 Noroeste 34 Norte 8 -- -- 92
2018-11-22 20:00:00 12.7 11 Oeste 30 Oeste 0 -- -- 85
2018-11-22 19:00:00 12.6 17 Oeste 36 Noroeste 2.8 -- -- 87
2018-11-22 18:00:00 13.3 17 Noroeste 29 Oeste 0 -- -- 81
2018-11-22 17:00:00 13.9 12 Noroeste 30 Norte 0 -- -- 86
2018-11-22 16:00:00 13.7 10 Noroeste 30 Norte 6.4 -- -- 91
2018-11-22 15:00:00 12.9 21 Oeste 44 Noroeste 24.6 -- -- 92
2018-11-22 14:00:00 13.3 17 Norte 44 Oeste 41.4 -- -- 97
2018-11-22 13:00:00 17.3 13 Norte 33 Noroeste 0.2 -- -- 79
2018-11-22 12:00:00 17.1 13 Norte 29 Norte 0 -- -- 77
2018-11-22 11:00:00 15.3 15 Oeste 36 Norte 9 -- -- 85
2018-11-22 10:00:00 15.6 12 Noroeste 26 Noroeste 3.4 -- -- 83
2018-11-22 09:00:00 14.1 15 Oeste 36 Noroeste 6.2 -- -- 88
2018-11-22 08:00:00 13.8 16 Oeste 32 Noroeste 1.2 -- -- 86
2018-11-22 07:00:00 14.9 12 Oeste 26 Oeste 0 -- -- 69
2018-11-22 06:00:00 14.9 8 Oeste 27 Noroeste 0 -- -- 64
2018-11-22 05:00:00 14.8 10 Oeste 25 Oeste 0 -- -- 67
2018-11-22 04:00:00 14.7 11 Oeste 23 Oeste 0 -- -- 69
2018-11-22 03:00:00 15.2 14 Sudoeste 31 Noroeste 0 -- -- 64
2018-11-22 02:00:00 14.9 8 Noroeste 26 Oeste 0 -- -- 72
2018-11-22 01:00:00 15 9 Oeste 28 Oeste 0 -- -- 65
2018-11-22 00:00:00 14.5 13 Oeste 33 Oeste 0 -- -- 79
2018-11-21 23:00:00 14.9 13 Oeste 21 Oeste 0 -- -- 72
2018-11-21 22:00:00 14.2 10 Oeste 19 Oeste 0 -- -- 74
2018-11-21 21:00:00 13.8 5 Sudoeste 12 Sudoeste 0 -- -- 91
2018-11-21 20:00:00 13.7 4 Sudoeste 7 Sudoeste 0 -- -- 93
2018-11-21 19:00:00 13.8 3 Oeste 13 Sudoeste 0 -- -- 87
2018-11-21 18:00:00 14.3 3 Noroeste 22 Noroeste 0.4 -- -- 86
2018-11-21 17:00:00 15.4 14 Oeste 35 Oeste 0 -- -- 75
2018-11-21 16:00:00 15.1 17 Oeste 45 Noroeste 0 -- -- 76
2018-11-21 15:00:00 14.9 21 Noroeste 37 Noroeste 0.8 -- -- 88
2018-11-21 14:00:00 14.6 26 Noroeste 47 Noroeste 5.2 -- -- 89
2018-11-21 13:00:00 15.3 17 Norte 33 Norte 5.2 -- -- 94
2018-11-21 12:00:00 18.6 7 Nordeste 10 Nordeste 0 -- -- 83
2018-11-21 11:00:00 19 6 Nordeste 14 Este 0 -- -- 79
2018-11-21 10:00:00 18.4 6 Oeste 12 Noroeste 0 -- -- 77
2018-11-21 09:00:00 17 7 Sudoeste 12 Sudoeste 0 -- -- 74
2018-11-21 08:00:00 16.1 10 Sudoeste 13 Sudoeste 0 -- -- 75
2018-11-21 07:00:00 16 12 Sudoeste 15 Sudoeste 0 -- -- 77
2018-11-21 06:00:00 16 8 Oeste 13 Oeste 0 -- -- 77
2018-11-21 05:00:00 16.1 8 Oeste 13 Oeste 0 -- -- 75
2018-11-21 04:00:00 16.5 9 Sudoeste 17 Sudoeste 0 -- -- 74
2018-11-21 03:00:00 16.7 11 Sudoeste 16 Sudoeste 0 -- -- 74
2018-11-21 02:00:00 16.4 10 Sudoeste 16 Sudoeste 0 -- -- 75
2018-11-21 01:00:00 16.3 9 Oeste 17 Oeste 0 -- -- 73
2018-11-21 00:00:00 16.3 12 Sudoeste 17 Sudoeste 0 -- -- 71
2018-11-20 23:00:00 16.1 10 Oeste 16 Sudoeste 0 -- -- 74
2018-11-20 22:00:00 16.3 10 Sudoeste 19 Sudoeste 0 -- -- 75
2018-11-20 21:00:00 15.9 11 Sudoeste 15 Sudoeste 0 -- -- 81
2018-11-20 20:00:00 16.1 9 Sudoeste 14 Oeste 0 -- -- 82
2018-11-20 19:00:00 16.3 7 Sudoeste 10 Sudoeste 0 -- -- 87
2018-11-20 18:00:00 17.8 4 Sudoeste 6 Sudoeste 0 -- -- 84
2018-11-20 17:00:00 18.1 4 Sudoeste 12 Sudeste 0 -- -- 82
2018-11-20 16:00:00 18.8 6 Este 11 Este 0 -- -- 80
2018-11-20 15:00:00 18.7 4 Norte 10 Nordeste 0 -- -- 79
2018-11-20 14:00:00 18.7 6 Nordeste 20 Este 0 -- -- 81
2018-11-20 13:00:00 20.1 12 Este 19 Este 0 -- -- 78
2018-11-20 12:00:00 21.1 10 Este 16 Sudeste 0 -- -- 71
2018-11-20 11:00:00 20.6 9 Nordeste 14 Este 0 -- -- 70
2018-11-20 10:00:00 18.9 6 Este 14 Sudoeste 0 -- -- 71
2018-11-20 09:00:00 16.4 11 Sudoeste 16 Sudoeste 0 -- -- 70
2018-11-20 08:00:00 14.6 8 Sudoeste 15 Sudoeste 0 -- -- 79
2018-11-20 07:00:00 14.6 10 Sudoeste 20 Sudoeste 0 -- -- 78
2018-11-20 06:00:00 15 11 Sudoeste 15 Oeste 0 -- -- 80
2018-11-20 05:00:00 14.9 3 Sur 10 Sudoeste 0 -- -- 84
2018-11-20 04:00:00 16.1 5 Sur 35 Oeste 0 -- -- 77
2018-11-20 03:00:00 15.7 7 Sudoeste 19 Oeste 0 -- -- 80
2018-11-20 02:00:00 16.5 13 Oeste 28 Noroeste 0 -- -- 77
2018-11-20 01:00:00 16.2 15 Noroeste 30 Noroeste 0 -- -- 80
2018-11-20 00:00:00 16.2 11 Norte 32 Oeste 0 -- -- 83
2018-11-19 23:00:00 16.7 11 Oeste 28 Noroeste 0 -- -- 74
2018-11-19 22:00:00 16.7 10 Norte 27 Noroeste 0 -- -- 74
2018-11-19 21:00:00 16.9 13 Noroeste 33 Noroeste 0 -- -- 68
2018-11-19 20:00:00 16.7 15 Oeste 35 Oeste 0 -- -- 73
2018-11-19 19:00:00 16.7 17 Oeste 37 Oeste 0 -- -- 70
2018-11-19 18:00:00 16.2 16 Oeste 32 Oeste 0 -- -- 78
2018-11-19 17:00:00 17.3 12 Noroeste 35 Noroeste 0 -- -- 77
2018-11-19 16:00:00 17.5 17 Norte 36 Norte 0 -- -- 73
2018-11-19 15:00:00 17.8 21 Norte 41 Noroeste 0 -- -- 72
2018-11-19 14:00:00 17.8 18 Norte 35 Norte 0 -- -- 73
2018-11-19 13:00:00 18.2 23 Norte 37 Nordeste 0 -- -- 70
2018-11-19 12:00:00 17.2 21 Norte 40 Norte 0 -- -- 72
2018-11-19 11:00:00 17.2 9 Norte 35 Oeste 0.2 -- -- 78
2018-11-19 10:00:00 16.4 9 Norte 28 Noroeste 0 -- -- 71
2018-11-19 09:00:00 15.1 9 Oeste 30 Oeste 0 -- -- 78
2018-11-19 08:00:00 14 17 Oeste 31 Noroeste 2.8 -- -- 86
2018-11-19 07:00:00 14 10 Oeste 32 Oeste 1.4 -- -- 84
2018-11-19 06:00:00 14.6 13 Noroeste 36 Noroeste 0 -- -- 78
2018-11-19 05:00:00 14.4 17 Noroeste 33 Noroeste 1.4 -- -- 87
2018-11-19 04:00:00 14.9 12 Noroeste 33 Oeste 0 -- -- 72
2018-11-19 03:00:00 14.7 15 Noroeste 31 Oeste 0 -- -- 68
2018-11-19 02:00:00 13.6 12 Oeste 30 Noroeste 0 -- -- 77
2018-11-19 01:00:00 13.7 12 Oeste 31 Noroeste 0.8 -- -- 86
2018-11-19 00:00:00 14.2 12 Oeste 27 Oeste 0.2 -- -- 77
2018-11-18 23:00:00 15 8 Oeste 26 Noroeste 0 -- -- 76
2018-11-18 22:00:00 14.7 12 Oeste 22 Oeste 0 -- -- 73
2018-11-18 21:00:00 14.8 13 Oeste 29 Oeste 0.2 -- -- 79
2018-11-18 20:00:00 15.4 9 Noroeste 30 Noroeste 0 -- -- 73
2018-11-18 19:00:00 15.4 12 Noroeste 28 Noroeste 0 -- -- 71
2018-11-18 18:00:00 15.7 9 Norte 26 Noroeste 0 -- -- 72
2018-11-18 17:00:00 15.9 13 Noroeste 27 Noroeste 0 -- -- 69
2018-11-18 16:00:00 16.3 11 Noroeste 31 Noroeste 0 -- -- 70
2018-11-18 15:00:00 16.7 13 Noroeste 32 Oeste 0 -- -- 75
2018-11-18 14:00:00 16.4 11 Oeste 33 Noroeste 0.2 -- -- 78
2018-11-18 13:00:00 17.4 10 Noroeste 31 Oeste 0 -- -- 75
2018-11-18 12:00:00 16.5 11 Noroeste 30 Noroeste 1.2 -- -- 80
2018-11-18 11:00:00 16.8 11 Norte 25 Noroeste 0 -- -- 77
2018-11-18 10:00:00 17.1 8 Noroeste 22 Oeste 0 -- -- 65
2018-11-18 09:00:00 15.1 8 Oeste 19 Noroeste 0 -- -- 76
2018-11-18 08:00:00 15.1 7 Oeste 21 Noroeste 0 -- -- 77
2018-11-18 07:00:00 15.5 10 Noroeste 27 Oeste 0 -- -- 74
2018-11-18 06:00:00 15 12 Oeste 21 Oeste 0 -- -- 68
2018-11-18 05:00:00 15.4 11 Oeste 24 Noroeste 0 -- -- 67
2018-11-18 04:00:00 14.9 12 Oeste 19 Oeste 0 -- -- 69
2018-11-18 03:00:00 14.9 8 Oeste 20 Noroeste 0 -- -- 77
2018-11-18 02:00:00 15.6 9 Oeste 21 Noroeste 0 -- -- 77
2018-11-18 01:00:00 15.7 9 Noroeste 20 Noroeste 0 -- -- 75
2018-11-18 00:00:00 15.9 11 Noroeste 25 Noroeste 0 -- -- 72
2018-11-17 23:00:00 15.9 13 Noroeste 30 Noroeste 0 -- -- 73
2018-11-17 22:00:00 16.1 12 Noroeste 30 Noroeste 0 -- -- 73
2018-11-17 21:00:00 16.3 12 Noroeste 33 Norte 0 -- -- 75
2018-11-17 20:00:00 16.2 12 Noroeste 36 Norte 0 -- -- 80
2018-11-17 19:00:00 16.6 19 Noroeste 39 Noroeste 0.2 -- -- 81
2018-11-17 18:00:00 17 14 Norte 41 Norte 0.4 -- -- 80
2018-11-17 17:00:00 17.8 14 Noroeste 42 Noroeste 0 -- -- 76
2018-11-17 16:00:00 18.4 20 Norte 41 Noroeste 0 -- -- 72
2018-11-17 15:00:00 19.5 15 Norte 44 Norte 0 -- -- 67
2018-11-17 14:00:00 19.2 18 Noroeste 59 Norte 0 -- -- 71
2018-11-17 13:00:00 19.1 19 Noroeste 49 Norte 0 -- -- 77
2018-11-17 12:00:00 19 16 Noroeste 48 Oeste 0.2 -- -- 70
2018-11-17 11:00:00 17.3 25 Noroeste 59 Noroeste 3.4 -- -- 88
2018-11-17 10:00:00 17.3 15 Noroeste 57 Noroeste 3 -- -- 88
2018-11-17 09:00:00 19 6 Oeste 15 Sudoeste 0 -- -- 75
2018-11-17 08:00:00 17.9 11 Sudoeste 22 Sudoeste 0 -- -- 70
2018-11-17 07:00:00 16.8 12 Oeste 23 Sudoeste 0 -- -- 72
2018-11-17 06:00:00 16.5 13 Sudoeste 26 Sudoeste 0 -- -- 70
2018-11-17 05:00:00 15.9 16 Sudoeste 22 Sudoeste 0 -- -- 71
2018-11-17 04:00:00 16.6 12 Sudoeste 21 Sudoeste 0 -- -- 68
2018-11-17 03:00:00 15.4 18 Sudoeste 23 Sudoeste 0 -- -- 70
2018-11-17 02:00:00 15.4 16 Sudoeste 21 Sudoeste 0 -- -- 67
2018-11-17 01:00:00 15.4 12 Sudoeste 24 Sudoeste 0 -- -- 70
2018-11-17 00:00:00 15.4 16 Sudoeste 26 Sudoeste 0 -- -- 75
2018-11-16 23:00:00 15.7 11 Sudoeste 18 Sudoeste 0 -- -- 78
2018-11-16 22:00:00 15.6 12 Sudoeste 17 Sudoeste 0 -- -- 79
2018-11-16 21:00:00 15.4 12 Sudoeste 17 Sudoeste 0 -- -- 80
2018-11-16 20:00:00 16.2 9 Sudoeste 14 Sudoeste 0 -- -- 78
2018-11-16 19:00:00 15.8 7 Sudoeste 14 Sudoeste 0 -- -- 79
2018-11-16 18:00:00 17 4 Sur 13 Norte 0 -- -- 74
2018-11-16 17:00:00 17.4 8 Norte 23 Este 0 -- -- 70
2018-11-16 16:00:00 18.6 12 Este 25 Este 0 -- -- 68
2018-11-16 15:00:00 18.2 6 Oeste 35 Noroeste 0 -- -- 67
2018-11-16 14:00:00 18.5 8 Oeste 35 Noroeste 0 -- -- 67
2018-11-16 13:00:00 18.9 11 Norte 33 Noroeste 0 -- -- 66
2018-11-16 12:00:00 18.5 19 Norte 35 Norte 0 -- -- 64
2018-11-16 11:00:00 18.1 11 Noroeste 26 Noroeste 0 -- -- 65
2018-11-16 10:00:00 17.7 6 Noroeste 17 Norte 0 -- -- 65
2018-11-16 09:00:00 15.7 8 Sudoeste 24 Sudoeste 0 -- -- 66
2018-11-16 08:00:00 14.3 14 Sudoeste 21 Sudoeste 0 -- -- 67
2018-11-16 07:00:00 14.6 8 Oeste 24 Noroeste 0 -- -- 69
2018-11-16 06:00:00 14.4 9 Oeste 22 Noroeste 0 -- -- 73
2018-11-16 05:00:00 14.4 9 Noroeste 27 Oeste 0 -- -- 71
2018-11-16 04:00:00 15.1 15 Noroeste 27 Oeste 0 -- -- 72
2018-11-16 03:00:00 14.6 8 Oeste 28 Oeste 0 -- -- 70
2018-11-16 02:00:00 14.9 8 Oeste 18 Oeste 0 -- -- 74
2018-11-16 01:00:00 14.8 8 Oeste 16 Noroeste 0 -- -- 74
2018-11-16 00:00:00 14.9 10 Oeste 30 Noroeste 0 -- -- 72
2018-11-15 23:00:00 15.3 15 Oeste 27 Noroeste 0 -- -- 73
2018-11-15 22:00:00 15.7 17 Noroeste 27 Noroeste 0 -- -- 73
2018-11-15 21:00:00 15.5 13 Oeste 28 Oeste 0 -- -- 73
2018-11-15 20:00:00 15.8 12 Oeste 27 Noroeste 0 -- -- 70
2018-11-15 19:00:00 15.9 17 Oeste 30 Oeste 0 -- -- 71
2018-11-15 18:00:00 16.2 15 Noroeste 27 Noroeste 0 -- -- 70
2018-11-15 17:00:00 17.5 15 Norte 36 Noroeste 0 -- -- 68
2018-11-15 16:00:00 17.7 16 Norte 44 Norte 0 -- -- 65
2018-11-15 15:00:00 17.9 25 Norte 44 Noroeste 0 -- -- 63
2018-11-15 14:00:00 18.1 27 Norte 45 Norte 0 -- -- 67
2018-11-15 13:00:00 18.3 21 Norte 44 Norte 0 -- -- 68
2018-11-15 12:00:00 18 21 Norte 39 Norte 0 -- -- 73
2018-11-15 11:00:00 16.9 20 Noroeste 35 Noroeste 0.6 -- -- 80
2018-11-15 10:00:00 15.7 20 Oeste 49 Oeste 1.4 -- -- 88
2018-11-15 09:00:00 15.3 17 Noroeste 40 Noroeste 8 -- -- 91
2018-11-15 08:00:00 15.9 14 Norte 32 Norte 0 -- -- 89
2018-11-15 07:00:00 16.1 6 Sudoeste 27 Noroeste 0 -- -- 75
2018-11-15 06:00:00 16.8 9 Norte 28 Noroeste 0 -- -- 73
2018-11-15 05:00:00 14.1 9 Sudoeste 20 Sudoeste 0 -- -- 76
2018-11-15 04:00:00 14.1 10 Oeste 18 Oeste 0 -- -- 76
2018-11-15 03:00:00 14.4 11 Sudoeste 18 Oeste 0 -- -- 78
2018-11-15 02:00:00 14.7 8 Oeste 18 Sudoeste 0 -- -- 81
2018-11-15 01:00:00 14.4 12 Sudoeste 18 Sudoeste 0 -- -- 83
2018-11-15 00:00:00 14.5 8 Oeste 20 Sudoeste 0 -- -- 82
2018-11-14 23:00:00 14.8 14 Sudoeste 21 Sudoeste 0 -- -- 79
2018-11-14 22:00:00 15.1 8 Sudoeste 18 Oeste 0 -- -- 83
2018-11-14 21:00:00 15.9 9 Oeste 18 Oeste 0 -- -- 81
2018-11-14 20:00:00 15.4 7 Oeste 21 Sudoeste 0 -- -- 81
2018-11-14 19:00:00 15.3 8 Sudoeste 15 Sudoeste 0 -- -- 83
2018-11-14 18:00:00 16.5 5 Norte 19 Norte 0 -- -- 80
2018-11-14 17:00:00 16.8 10 Norte 25 Norte 0 -- -- 77
2018-11-14 16:00:00 17.1 15 Norte 28 Norte 0 -- -- 76
2018-11-14 15:00:00 17.3 17 Norte 24 Norte 0 -- -- 75
2018-11-14 14:00:00 18.2 14 Norte 25 Norte 0 -- -- 73
2018-11-14 13:00:00 19.1 12 Nordeste 18 Nordeste 0 -- -- 69
2018-11-14 12:00:00 20 9 Nordeste 15 Nordeste 0 -- -- 64
2018-11-14 11:00:00 18.2 5 Nordeste 13 Norte 0 -- -- 71
2018-11-14 10:00:00 17.3 5 Nordeste 15 Oeste 0 -- -- 74
2018-11-14 09:00:00 15.2 9 Sudoeste 17 Sudoeste 0 -- -- 84
2018-11-14 08:00:00 14.8 14 Sudoeste 20 Sudoeste 0 -- -- 80
2018-11-14 07:00:00 14.6 13 Sudoeste 20 Sudoeste 0 -- -- 82
2018-11-14 06:00:00 14.4 11 Sudoeste 22 Sudoeste 0 -- -- 83
2018-11-14 05:00:00 14.7 10 Sudoeste 17 Oeste 0 -- -- 87
2018-11-14 04:00:00 15.1 11 Sudoeste 21 Nordeste 0 -- -- 84
2018-11-14 03:00:00 14.9 13 Sudoeste 24 Sudoeste 0 -- -- 83
2018-11-14 02:00:00 14.7 11 Sudoeste 18 Sudoeste 0 -- -- 85
2018-11-14 01:00:00 15 10 Sudoeste 18 Noroeste 0 -- -- 90
2018-11-14 00:00:00 15.6 5 Oeste 11 Oeste 0 -- -- 79